createdAt,value
2019-05-13T00:00:44.627Z,96.50
2019-05-13T00:03:13.894Z,96.40
2019-05-13T00:05:44.595Z,96.30
2019-05-13T00:08:13.959Z,96.00
2019-05-13T00:10:44.502Z,96.50
2019-05-13T00:13:14.668Z,96.90
2019-05-13T00:15:44.462Z,97.00
2019-05-13T00:18:14.400Z,96.40
2019-05-13T00:20:44.342Z,96.50
2019-05-13T00:23:14.354Z,96.60
2019-05-13T00:25:44.383Z,96.80
2019-05-13T00:28:14.437Z,96.80
2019-05-13T00:30:44.511Z,96.50
2019-05-13T00:33:14.271Z,96.80
2019-05-13T00:35:44.262Z,96.80
2019-05-13T00:38:14.070Z,96.80
2019-05-13T00:40:44.388Z,96.60
2019-05-13T00:43:14.308Z,96.80
2019-05-13T00:45:44.553Z,97.00
2019-05-13T00:48:14.336Z,96.50
2019-05-13T00:50:44.241Z,96.50
2019-05-13T00:53:13.541Z,97.00
2019-05-13T00:55:44.509Z,97.00
2019-05-13T00:58:13.946Z,96.90
2019-05-13T01:00:44.656Z,96.60
2019-05-13T01:03:14.281Z,97.00
2019-05-13T01:05:44.500Z,97.10
2019-05-13T01:08:14.621Z,97.10
2019-05-13T01:10:45.225Z,97.10
2019-05-13T01:13:14.289Z,97.00
2019-05-13T01:15:44.257Z,97.00
2019-05-13T01:18:14.269Z,97.10
2019-05-13T01:20:43.983Z,96.90
2019-05-13T01:23:14.124Z,97.20
2019-05-13T01:25:44.462Z,96.90
2019-05-13T01:28:13.734Z,96.90
2019-05-13T01:30:43.987Z,97.00
2019-05-13T01:33:14.462Z,97.00
2019-05-13T01:35:44.604Z,97.00
2019-05-13T01:38:13.715Z,97.00
2019-05-13T01:40:44.015Z,97.30
2019-05-13T01:43:14.434Z,97.30
2019-05-13T01:45:44.123Z,97.20
2019-05-13T01:48:14.103Z,97.30
2019-05-13T01:50:44.464Z,97.40
2019-05-13T01:53:14.508Z,97.20
2019-05-13T01:55:44.279Z,97.40
2019-05-13T01:58:14.645Z,97.40
2019-05-13T02:00:44.430Z,97.50
2019-05-13T02:03:14.546Z,97.30
2019-05-13T02:05:44.413Z,97.50
2019-05-13T02:08:14.359Z,97.40
2019-05-13T02:10:53.812Z,97.60
2019-05-13T02:13:24.053Z,97.70
2019-05-13T02:15:54.990Z,97.60
2019-05-13T02:18:24.522Z,97.80
2019-05-13T02:20:55.454Z,97.90
2019-05-13T02:23:24.497Z,98.10
2019-05-13T02:25:54.429Z,98.10
2019-05-13T02:28:25.109Z,98.00
2019-05-13T02:30:56.049Z,97.80
2019-05-13T02:33:24.898Z,97.90
2019-05-13T02:35:54.069Z,97.90
2019-05-13T02:38:29.821Z,98.00
2019-05-13T02:40:54.433Z,97.80
2019-05-13T02:43:24.208Z,98.40
2019-05-13T02:45:54.194Z,98.10
2019-05-13T02:48:24.069Z,98.20
2019-05-13T02:50:54.186Z,98.40
2019-05-13T02:53:24.332Z,98.40
2019-05-13T02:55:54.072Z,98.10
2019-05-13T02:58:25.125Z,98.60
2019-05-13T03:00:54.178Z,98.70
2019-05-13T03:03:23.812Z,98.70
2019-05-13T03:05:53.792Z,98.60
2019-05-13T03:08:39.634Z,98.70
2019-05-13T03:10:54.020Z,98.40
2019-05-13T03:13:24.087Z,98.40
2019-05-13T03:15:54.901Z,98.50
2019-05-13T03:18:24.319Z,98.60
2019-05-13T03:20:53.322Z,98.50
2019-05-13T03:23:22.889Z,98.60
2019-05-13T03:25:53.613Z,98.70
2019-05-13T03:28:22.671Z,98.90
2019-05-13T03:30:56.536Z,99.00
2019-05-13T03:33:27.871Z,99.00
2019-05-13T03:35:55.666Z,99.00
2019-05-13T03:38:23.993Z,99.00
2019-05-13T03:40:55.238Z,99.10
2019-05-13T03:43:26.005Z,99.10
2019-05-13T03:45:57.363Z,98.70
2019-05-13T03:48:26.229Z,98.90
2019-05-13T03:50:55.636Z,98.70
2019-05-13T03:53:24.535Z,98.80
2019-05-13T03:55:54.293Z,98.60
2019-05-13T03:58:24.074Z,98.70
2019-05-13T04:00:53.151Z,98.80
2019-05-13T04:03:22.891Z,98.40
2019-05-13T04:05:52.930Z,98.60
2019-05-13T04:08:22.996Z,98.70
2019-05-13T04:10:52.619Z,98.20
2019-05-13T04:13:23.350Z,98.00
2019-05-13T04:15:53.176Z,97.80
2019-05-13T04:18:23.713Z,97.70
2019-05-13T04:20:53.175Z,97.50
2019-05-13T04:23:23.530Z,97.50
2019-05-13T04:25:53.751Z,97.20
2019-05-13T04:28:22.895Z,97.20
2019-05-13T04:30:52.598Z,97.20
2019-05-13T04:33:22.903Z,97.00
2019-05-13T04:35:53.127Z,97.10
2019-05-13T04:38:23.027Z,97.00
2019-05-13T04:40:52.780Z,97.20
2019-05-13T04:43:23.512Z,97.60
2019-05-13T04:45:53.039Z,97.60
2019-05-13T04:48:22.854Z,97.50
2019-05-13T04:50:53.382Z,97.10
2019-05-13T04:53:22.911Z,97.00
2019-05-13T04:55:52.884Z,97.40
2019-05-13T04:58:23.461Z,97.50
2019-05-13T05:01:16.661Z,96.80
2019-05-13T05:04:22.381Z,96.70
2019-05-13T05:06:57.825Z,96.30
2019-05-13T05:09:33.123Z,95.60
2019-05-13T05:12:17.240Z,95.90
2019-05-13T05:14:57.954Z,96.20
2019-05-13T05:17:33.010Z,96.20
2019-05-13T05:20:12.253Z,95.90
2019-05-13T05:22:51.275Z,95.90
2019-05-13T05:25:29.172Z,96.10
2019-05-13T05:28:33.646Z,96.00
2019-05-13T05:31:25.043Z,96.10
2019-05-13T05:34:11.845Z,96.50
2019-05-13T05:36:46.658Z,96.60
2019-05-13T05:39:26.471Z,96.60
2019-05-13T05:42:02.016Z,96.60
2019-05-13T05:44:32.451Z,96.90
2019-05-13T05:47:03.611Z,97.10
2019-05-13T05:49:32.552Z,97.10
2019-05-13T05:52:04.161Z,97.20
2019-05-13T05:54:36.029Z,96.70
2019-05-13T05:57:06.191Z,96.30
2019-05-13T05:59:35.739Z,95.80
2019-05-13T06:02:05.634Z,95.40
2019-05-13T06:04:34.504Z,94.40
2019-05-13T06:07:03.675Z,94.00
2019-05-13T06:09:33.121Z,94.00
2019-05-13T06:12:02.032Z,93.40
2019-05-13T06:14:32.741Z,94.30
2019-05-13T06:17:02.908Z,93.20
2019-05-13T06:19:32.176Z,93.70
2019-05-13T06:22:02.216Z,93.40
2019-05-13T06:24:32.228Z,91.60
2019-05-13T06:27:01.789Z,89.50
2019-05-13T06:29:31.785Z,88.90
2019-05-13T06:32:15.294Z,90.30
2019-05-13T06:34:32.811Z,90.20
2019-05-13T06:37:02.439Z,90.30
2019-05-13T06:39:31.829Z,88.80
2019-05-13T06:42:02.778Z,87.50
2019-05-13T06:44:32.697Z,88.40
2019-05-13T06:47:02.987Z,89.30
2019-05-13T06:49:32.719Z,90.80
2019-05-13T06:52:01.957Z,90.40
2019-05-13T06:54:33.120Z,89.40
2019-05-13T06:57:04.149Z,86.60
2019-05-13T06:59:32.437Z,85.70
2019-05-13T07:02:02.092Z,85.20
2019-05-13T07:04:32.872Z,87.10
2019-05-13T07:07:12.766Z,88.30
2019-05-13T07:09:32.699Z,85.40
2019-05-13T07:12:02.930Z,84.70
2019-05-13T07:14:32.686Z,84.60
2019-05-13T07:17:02.258Z,82.50
2019-05-13T07:19:32.358Z,82.10
2019-05-13T07:22:02.718Z,80.90
2019-05-13T07:24:32.513Z,78.80
2019-05-13T07:27:02.157Z,79.90
2019-05-13T07:29:32.473Z,78.80
2019-05-13T07:32:02.163Z,81.80
2019-05-13T07:34:33.585Z,82.50
2019-05-13T07:37:02.351Z,76.50
2019-05-13T07:39:32.922Z,77.70
2019-05-13T07:42:05.503Z,77.60
2019-05-13T07:44:32.729Z,77.80
2019-05-13T07:47:03.307Z,74.60
2019-05-13T07:49:32.223Z,71.70
2019-05-13T07:52:01.785Z,71.50
2019-05-13T07:54:33.057Z,67.90
2019-05-13T07:57:02.241Z,75.40
2019-05-13T07:59:32.087Z,69.60
2019-05-13T08:02:02.321Z,69.60
2019-05-13T08:04:33.533Z,71.00
2019-05-13T08:07:02.513Z,63.90
2019-05-13T08:09:32.173Z,61.60
2019-05-13T08:12:09.965Z,59.20
2019-05-13T08:14:33.421Z,57.60
2019-05-13T08:17:02.831Z,58.80
2019-05-13T08:19:32.671Z,51.20
2019-05-13T08:22:02.442Z,57.80
2019-05-13T08:24:31.816Z,58.40
2019-05-13T08:27:02.164Z,63.50
2019-05-13T08:29:32.724Z,61.50
2019-05-13T08:32:02.991Z,60.20
2019-05-13T08:34:33.162Z,60.30
2019-05-13T08:37:03.246Z,66.00
2019-05-13T08:39:38.141Z,60.80
2019-05-13T08:42:15.101Z,60.30
2019-05-13T08:44:33.505Z,58.20
2019-05-13T08:47:03.369Z,54.40
2019-05-13T08:49:32.750Z,59.30
2019-05-13T08:52:02.156Z,58.00
2019-05-13T08:54:32.836Z,53.60
2019-05-13T08:57:02.887Z,53.60
2019-05-13T08:59:32.268Z,53.80
2019-05-13T09:02:02.981Z,58.20
2019-05-13T09:04:31.781Z,55.60
2019-05-13T09:07:02.469Z,52.90
2019-05-13T09:09:31.900Z,52.20
2019-05-13T09:12:02.782Z,50.10
2019-05-13T09:14:32.576Z,49.50
2019-05-13T09:17:02.298Z,46.90
2019-05-13T09:19:32.279Z,47.00
2019-05-13T09:33:56.117Z,51.50
2019-05-13T09:36:24.971Z,52.50
2019-05-13T09:38:53.829Z,55.40
2019-05-13T09:41:22.772Z,52.90
2019-05-13T09:43:51.634Z,46.80
2019-05-13T09:46:22.522Z,48.40
2019-05-13T09:49:11.890Z,44.10
2019-05-13T09:51:26.823Z,47.10
2019-05-13T09:53:55.799Z,41.30
2019-05-13T09:56:24.670Z,41.80
2019-05-13T09:58:53.583Z,42.80
2019-05-13T10:01:22.728Z,39.50
2019-05-13T10:03:54.763Z,42.40
2019-05-13T10:06:22.360Z,39.10
2019-05-13T10:08:54.080Z,37.30
2019-05-13T10:11:22.995Z,35.80
2019-05-13T10:13:51.900Z,35.20
2019-05-13T10:16:22.108Z,38.30
2019-05-13T10:18:52.437Z,41.20
2019-05-13T10:21:21.930Z,38.70
2019-05-13T10:23:51.338Z,41.00
2019-05-13T10:26:22.551Z,36.50
2019-05-13T10:28:51.254Z,40.40
2019-05-13T10:31:22.023Z,42.00
2019-05-13T10:33:51.402Z,46.20
2019-05-13T10:36:22.294Z,43.50
2019-05-13T10:38:52.199Z,41.40
2019-05-13T10:41:22.203Z,40.70
2019-05-13T10:43:52.066Z,41.00
2019-05-13T10:46:22.126Z,44.40
2019-05-13T10:48:52.603Z,42.80
2019-05-13T10:51:22.478Z,43.60
2019-05-13T10:53:53.576Z,40.00
2019-05-13T10:56:22.976Z,43.60
2019-05-13T10:58:53.509Z,43.40
2019-05-13T11:01:22.742Z,43.20
2019-05-13T11:03:52.499Z,41.30
2019-05-13T11:06:22.097Z,40.00
2019-05-13T11:08:53.177Z,44.00
2019-05-13T11:11:22.094Z,39.90
2019-05-13T11:13:58.865Z,40.50
2019-05-13T11:16:22.535Z,45.10
2019-05-13T11:18:52.081Z,43.40
2019-05-13T11:21:22.620Z,42.10
2019-05-13T11:23:52.289Z,46.60
2019-05-13T11:26:21.969Z,48.50
2019-05-13T11:28:52.094Z,49.10
2019-05-13T11:31:22.464Z,50.10
2019-05-13T11:33:52.183Z,52.70
2019-05-13T11:36:23.422Z,54.00
2019-05-13T11:38:53.089Z,57.30
2019-05-13T11:41:23.012Z,55.40
2019-05-13T11:44:10.999Z,54.50
2019-05-13T11:46:22.814Z,55.60
2019-05-13T11:48:52.490Z,51.50
2019-05-13T11:51:24.251Z,56.50
2019-05-13T11:53:52.519Z,56.30
2019-05-13T11:56:22.975Z,56.80
2019-05-13T11:58:53.468Z,55.20
2019-05-13T12:01:23.030Z,53.60
2019-05-13T12:03:53.149Z,56.00
2019-05-13T12:06:23.513Z,50.60
2019-05-13T12:08:55.168Z,52.90
2019-05-13T12:11:23.218Z,51.60
2019-05-13T12:13:52.877Z,50.20
2019-05-13T12:16:22.863Z,52.70
2019-05-13T12:18:52.871Z,53.70
2019-05-13T12:21:22.026Z,55.40
2019-05-13T12:23:52.680Z,51.90
2019-05-13T12:28:53.534Z,51.80
2019-05-13T12:31:22.883Z,49.60
2019-05-13T12:33:52.602Z,48.20
2019-05-13T12:36:23.579Z,51.50
2019-05-13T12:38:53.498Z,51.50
2019-05-13T12:41:23.182Z,51.80
2019-05-13T12:43:54.018Z,52.40
2019-05-13T12:46:24.846Z,52.80
2019-05-13T12:48:53.319Z,52.90
2019-05-13T12:51:22.861Z,52.60
2019-05-13T12:53:52.638Z,52.50
2019-05-13T12:56:23.605Z,51.30
2019-05-13T12:58:52.753Z,50.60
2019-05-13T13:01:23.891Z,48.30
2019-05-13T13:03:52.157Z,49.30
2019-05-13T13:06:32.494Z,48.90
2019-05-13T13:08:52.394Z,52.10
2019-05-13T13:11:22.797Z,50.40
2019-05-13T13:13:58.926Z,52.20
2019-05-13T13:16:22.553Z,52.00
2019-05-13T13:18:52.283Z,52.60
2019-05-13T13:21:24.467Z,50.30
2019-05-13T13:23:52.371Z,53.10
2019-05-13T13:26:21.903Z,51.10
2019-05-13T13:28:55.783Z,52.30
2019-05-13T13:31:25.152Z,49.10
2019-05-13T13:33:55.147Z,44.40
2019-05-13T13:36:24.159Z,45.30
2019-05-13T13:38:56.400Z,45.10
2019-05-13T13:41:26.325Z,46.80
2019-05-13T13:43:55.353Z,48.20
2019-05-13T13:46:36.956Z,50.80
2019-05-13T13:48:55.698Z,47.00
2019-05-13T13:51:26.339Z,48.60
2019-05-13T13:54:00.438Z,50.20
2019-05-13T13:56:31.993Z,44.80
2019-05-13T13:59:04.391Z,50.60
2019-05-13T14:01:33.347Z,47.80
2019-05-13T14:04:03.676Z,47.30
2019-05-13T14:06:33.061Z,50.60
2019-05-13T14:07:22.351Z,47.20
2019-05-13T14:09:04.989Z,45.20
2019-05-13T14:11:33.930Z,47.70
2019-05-13T14:14:02.806Z,47.00
2019-05-13T14:16:35.220Z,42.80
2019-05-13T14:19:02.209Z,48.40
2019-05-13T14:21:32.428Z,44.60
2019-05-13T14:24:02.617Z,45.60
2019-05-13T14:26:33.010Z,43.40
2019-05-13T14:29:02.742Z,45.20
2019-05-13T14:31:32.474Z,42.40
2019-05-13T14:34:03.602Z,42.00
2019-05-13T14:36:32.293Z,44.70
2019-05-13T14:39:02.773Z,44.50
2019-05-13T14:41:31.658Z,41.10
2019-05-13T14:44:03.500Z,36.60
2019-05-13T14:46:46.375Z,45.00
2019-05-13T14:49:01.790Z,40.40
2019-05-13T14:51:32.372Z,43.80
2019-05-13T14:54:02.744Z,41.80
2019-05-13T14:56:32.374Z,43.40
2019-05-13T14:59:02.642Z,45.60
2019-05-13T15:01:32.016Z,46.30
2019-05-13T15:04:02.779Z,48.00
2019-05-13T15:06:32.678Z,49.60
2019-05-13T15:09:01.968Z,49.50
2019-05-13T15:11:32.413Z,50.70
2019-05-13T15:14:02.435Z,51.60
2019-05-13T15:16:31.892Z,51.50
2019-05-13T15:19:01.705Z,52.20
2019-05-13T15:21:32.118Z,53.00
2019-05-13T15:24:02.332Z,50.70
2019-05-13T15:26:33.400Z,53.30
2019-05-13T15:29:05.003Z,54.30
2019-05-13T15:31:32.886Z,53.10
2019-05-13T15:34:02.515Z,54.20
2019-05-13T15:36:31.787Z,54.60
2019-05-13T15:39:01.377Z,53.60
2019-05-13T15:41:31.327Z,56.20
2019-05-13T15:44:03.171Z,55.50
2019-05-13T15:46:33.495Z,55.20
2019-05-13T15:49:02.746Z,56.80
2019-05-13T15:51:31.668Z,56.20
2019-05-13T15:54:02.293Z,56.90
2019-05-13T15:56:31.639Z,58.30
2019-05-13T15:59:01.934Z,58.80
2019-05-13T16:01:31.199Z,59.00
2019-05-13T16:04:02.432Z,59.90
2019-05-13T16:06:32.184Z,59.60
2019-05-13T16:09:02.710Z,57.70
2019-05-13T16:11:32.728Z,59.50
2019-05-13T16:14:02.215Z,59.60
2019-05-13T16:16:32.348Z,58.70
2019-05-13T16:19:01.554Z,59.30
2019-05-13T16:21:32.007Z,59.50
2019-05-13T16:24:02.653Z,60.40
2019-05-13T16:26:32.050Z,60.30
2019-05-13T16:29:02.145Z,60.30
2019-05-13T16:31:31.862Z,59.00
2019-05-13T16:34:01.654Z,58.00
2019-05-13T16:36:31.380Z,57.40
2019-05-13T16:39:02.218Z,59.10
2019-05-13T16:41:31.613Z,57.10
2019-05-13T16:44:00.615Z,58.40
2019-05-13T16:46:31.589Z,59.30
2019-05-13T16:49:01.378Z,59.20
2019-05-13T16:51:31.707Z,60.10
2019-05-13T16:54:00.773Z,60.60
2019-05-13T16:56:31.023Z,61.60
2019-05-13T16:59:01.637Z,63.70
2019-05-13T17:01:30.763Z,63.40
2019-05-13T17:04:01.839Z,64.70
2019-05-13T17:06:32.013Z,66.50
2019-05-13T17:09:02.027Z,66.20
2019-05-13T17:11:32.173Z,67.70
2019-05-13T17:14:02.344Z,68.60
2019-05-13T17:16:31.808Z,68.20
2019-05-13T17:19:01.423Z,67.10
2019-05-13T17:21:31.629Z,68.90
2019-05-13T17:24:01.592Z,70.00
2019-05-13T17:26:32.707Z,67.80
2019-05-13T17:29:01.469Z,68.10
2019-05-13T17:31:32.468Z,68.10
2019-05-13T17:34:01.602Z,69.40
2019-05-13T17:36:32.526Z,70.10
2019-05-13T17:39:01.957Z,70.00
2019-05-13T17:41:32.405Z,70.10
2019-05-13T17:44:02.384Z,70.20
2019-05-13T17:46:32.610Z,70.20
2019-05-13T17:49:01.690Z,69.60
2019-05-13T17:51:30.557Z,68.70
2019-05-13T17:54:01.439Z,69.90
2019-05-13T17:56:32.151Z,69.50
2019-05-13T17:59:00.511Z,70.00
2019-05-13T18:01:31.579Z,69.90
2019-05-13T18:04:02.266Z,70.10
2019-05-13T18:06:30.648Z,70.60
2019-05-13T18:09:01.240Z,70.10
2019-05-13T18:11:30.174Z,70.20
2019-05-13T18:14:01.121Z,70.30
2019-05-13T18:16:29.582Z,69.80
2019-05-13T18:18:59.951Z,69.80
2019-05-13T18:21:28.817Z,69.20
2019-05-13T18:23:57.714Z,69.10
2019-05-13T18:26:27.584Z,69.00
2019-05-13T18:28:56.465Z,68.60
2019-05-13T18:31:25.378Z,69.10
2019-05-13T18:33:54.229Z,69.30
2019-05-13T18:36:23.069Z,68.90
2019-05-13T18:38:54.014Z,68.10
2019-05-13T18:41:22.834Z,68.30
2019-05-13T18:43:54.834Z,68.60
2019-05-13T18:46:22.887Z,69.10
2019-05-13T18:48:58.702Z,69.50
2019-05-13T18:51:22.262Z,70.40
2019-05-13T18:53:51.940Z,71.60
2019-05-13T18:56:21.805Z,72.90
2019-05-13T18:58:50.801Z,73.00
2019-05-13T19:01:21.584Z,73.90
2019-05-13T19:03:50.553Z,74.70
2019-05-13T19:06:22.233Z,76.30
2019-05-13T19:08:52.694Z,75.40
2019-05-13T19:11:22.265Z,74.00
2019-05-13T19:13:52.132Z,73.90
2019-05-13T19:16:21.434Z,75.10
2019-05-13T19:18:50.497Z,74.60
2019-05-13T19:21:21.737Z,76.00
2019-05-13T19:23:51.324Z,75.20
2019-05-13T19:26:21.774Z,76.00
2019-05-13T19:28:51.782Z,76.20
2019-05-13T19:31:22.097Z,76.70
2019-05-13T19:33:52.047Z,77.00
2019-05-13T19:36:21.186Z,76.50
2019-05-13T19:38:51.280Z,76.80
2019-05-13T19:41:22.101Z,76.20
2019-05-13T19:43:51.181Z,75.90
2019-05-13T19:46:20.231Z,76.10
2019-05-13T19:48:49.075Z,76.10
2019-05-13T19:51:17.957Z,77.40
2019-05-13T19:53:46.872Z,77.20
2019-05-13T19:56:15.929Z,78.60
2019-05-13T19:58:44.744Z,78.70
2019-05-13T20:01:13.653Z,80.40
2019-05-13T20:03:42.602Z,81.10
2019-05-13T20:06:12.263Z,82.10
2019-05-13T20:08:41.847Z,83.10
2019-05-13T20:11:11.471Z,83.70
2019-05-13T20:13:41.823Z,83.90
2019-05-13T20:16:11.771Z,84.40
2019-05-13T20:18:41.463Z,85.30
2019-05-13T20:21:13.432Z,85.10
2019-05-13T20:23:41.592Z,85.70
2019-05-13T20:26:10.427Z,86.70
2019-05-13T20:28:41.836Z,86.70
2019-05-13T20:31:11.109Z,86.00
2019-05-13T20:33:42.774Z,87.40
2019-05-13T20:36:11.893Z,87.10
2019-05-13T20:38:41.107Z,88.00
2019-05-13T20:41:11.648Z,88.50
2019-05-13T20:43:42.710Z,87.70
2019-05-13T20:46:11.713Z,88.10
2019-05-13T20:48:41.193Z,88.30
2019-05-13T20:51:11.349Z,88.10
2019-05-13T20:53:41.247Z,87.90
2019-05-13T20:56:10.441Z,87.80
2019-05-13T20:58:39.296Z,87.30
2019-05-13T21:01:08.240Z,86.60
2019-05-13T21:03:37.086Z,85.90
2019-05-13T21:06:05.955Z,85.60
2019-05-13T21:08:34.867Z,84.90
2019-05-13T21:11:03.735Z,84.80
2019-05-13T21:13:32.623Z,84.80
2019-05-13T21:16:02.311Z,84.80
2019-05-13T21:18:31.677Z,84.90
2019-05-13T21:21:00.876Z,85.00
2019-05-13T21:23:31.296Z,84.40
2019-05-13T21:26:01.661Z,85.70
2019-05-13T21:28:30.984Z,85.10
2019-05-13T21:31:01.945Z,84.80
2019-05-13T21:33:31.455Z,84.30
2019-05-13T21:36:01.776Z,85.10
2019-05-13T21:38:32.492Z,85.40
2019-05-13T21:41:01.702Z,85.60
2019-05-13T21:43:32.379Z,85.50
2019-05-13T21:46:01.921Z,86.60
2019-05-13T21:48:32.490Z,86.20
2019-05-13T21:51:02.034Z,86.20
2019-05-13T21:53:32.639Z,86.00
2019-05-13T21:56:02.287Z,85.60
2019-05-13T21:58:31.729Z,85.90
2019-05-13T22:01:01.685Z,86.40
2019-05-13T22:03:33.183Z,85.90
2019-05-13T22:06:02.861Z,86.60
2019-05-13T22:08:32.209Z,88.10
2019-05-13T22:11:01.897Z,89.50
2019-05-13T22:13:31.549Z,89.00
2019-05-13T22:16:01.738Z,90.10
2019-05-13T22:18:31.589Z,90.60
2019-05-13T22:21:01.304Z,90.90
2019-05-13T22:23:32.154Z,91.30
2019-05-13T22:26:01.675Z,91.30
2019-05-13T22:28:31.428Z,91.30
2019-05-13T22:31:01.316Z,90.60
2019-05-13T22:33:32.498Z,91.00
2019-05-13T22:36:01.828Z,91.40
2019-05-13T22:38:32.337Z,91.60
2019-05-13T22:41:01.703Z,91.60
2019-05-13T22:43:32.014Z,91.70
2019-05-13T22:46:01.029Z,91.30
2019-05-13T22:48:31.696Z,91.60
2019-05-13T22:51:01.373Z,92.30
2019-05-13T22:53:31.851Z,92.30
2019-05-13T22:56:00.990Z,92.20
2019-05-13T22:58:31.869Z,91.60
2019-05-13T23:01:02.492Z,91.90
2019-05-13T23:03:32.394Z,92.20
2019-05-13T23:06:07.371Z,92.80
2019-05-13T23:08:36.230Z,92.90
2019-05-13T23:11:05.096Z,92.70
2019-05-13T23:13:34.007Z,93.00
2019-05-13T23:16:02.911Z,92.20
2019-05-13T23:18:31.898Z,93.30
2019-05-13T23:21:20.079Z,92.90
2019-05-13T23:23:51.322Z,93.20
2019-05-13T23:26:21.041Z,92.80
2019-05-13T23:28:52.066Z,93.70
2019-05-13T23:31:20.615Z,93.10
2019-05-13T23:33:49.479Z,94.10
2019-05-13T23:36:18.380Z,92.90
2019-05-13T23:38:47.253Z,94.00
2019-05-13T23:41:16.117Z,94.10
2019-05-13T23:43:44.971Z,94.00
2019-05-13T23:46:13.824Z,93.20
2019-05-13T23:48:43.121Z,93.10
2019-05-13T23:51:12.948Z,93.30
2019-05-13T23:53:42.069Z,93.90
2019-05-13T23:56:11.235Z,93.40
2019-05-13T23:58:42.837Z,93.90
